Salt Springs, Florida
Current Conditions -  °F | °C
As of 3:35 PM on Thursday 29 Jan 2015 (Local Time) from K28J Reporting Station
Clear Clear  
Wind Chill: 66°   Ceiling: Unl
Heat Index: 66°   Visibility: 10mi
Dew Point: 45°   Wind: 3mph
Humidity: 46%   Direction: 230°SW
Pressure: 30.23"   Gusts: NA
Location:  29.3142°N, 81.8267°W
Report Text: K28J 292035Z AUTO 23003KT 10SM CLR 19/07 A3023 RMK AO2
Loading
Personal Weather Stations






























Interactive Weather Map New forecast layout! Learn more

10-Day Weather Forecast

Advertisements
Track Severe Weather on mobile